createdAt,value
2018-06-24T00:02:47.829Z,9.59
2018-06-24T00:05:50.976Z,9.54
2018-06-24T00:08:54.751Z,9.52
2018-06-24T00:11:57.793Z,9.48
2018-06-24T00:15:00.862Z,9.42
2018-06-24T00:18:04.126Z,9.37
2018-06-24T00:21:07.309Z,9.32
2018-06-24T00:24:10.524Z,9.21
2018-06-24T00:27:13.641Z,9.10
2018-06-24T00:30:16.893Z,9.02
2018-06-24T00:33:20.188Z,8.90
2018-06-24T00:36:23.248Z,8.84
2018-06-24T00:39:26.488Z,8.72
2018-06-24T00:42:29.743Z,8.63
2018-06-24T00:45:32.781Z,8.64
2018-06-24T00:48:35.896Z,8.65
2018-06-24T00:51:38.990Z,8.66
2018-06-24T00:54:43.117Z,8.65
2018-06-24T00:57:46.117Z,8.66
2018-06-24T01:00:49.283Z,8.61
2018-06-24T01:03:52.428Z,8.59
2018-06-24T01:06:55.454Z,8.48
2018-06-24T01:09:59.856Z,8.42
2018-06-24T01:13:03.083Z,8.33
2018-06-24T01:16:07.993Z,8.31
2018-06-24T01:19:11.342Z,8.30
2018-06-24T01:22:14.510Z,8.39
2018-06-24T01:25:17.514Z,8.55
2018-06-24T01:28:20.516Z,8.69
2018-06-24T01:31:23.763Z,8.80
2018-06-24T01:34:27.917Z,8.89
2018-06-24T01:37:31.159Z,8.94
2018-06-24T01:40:34.275Z,9.01
2018-06-24T01:43:38.250Z,9.06
2018-06-24T01:46:41.347Z,9.12
2018-06-24T01:49:44.627Z,9.15
2018-06-24T01:52:47.730Z,9.18
2018-06-24T01:55:50.834Z,9.25
2018-06-24T01:58:54.367Z,9.37
2018-06-24T02:01:57.387Z,9.46
2018-06-24T02:05:00.370Z,9.52
2018-06-24T02:08:03.712Z,9.63
2018-06-24T02:11:07.040Z,9.74
2018-06-24T02:14:10.331Z,9.82
2018-06-24T02:17:13.372Z,9.81
2018-06-24T02:20:16.609Z,9.83
2018-06-24T02:23:19.807Z,9.79
2018-06-24T02:26:22.995Z,9.50
2018-06-24T02:29:26.121Z,9.35
2018-06-24T02:32:29.290Z,9.45
2018-06-24T02:35:32.341Z,9.47
2018-06-24T02:38:36.411Z,9.63
2018-06-24T02:41:39.565Z,9.82
2018-06-24T02:44:42.621Z,9.98
2018-06-24T02:47:45.758Z,10.09
2018-06-24T02:50:48.864Z,10.18
2018-06-24T02:53:51.876Z,10.24
2018-06-24T02:56:54.881Z,10.31
2018-06-24T02:59:57.982Z,10.37
2018-06-24T03:03:01.066Z,10.43
2018-06-24T03:06:04.103Z,10.49
2018-06-24T03:09:09.328Z,10.54
2018-06-24T03:12:12.566Z,10.54
2018-06-24T03:15:15.847Z,10.57
2018-06-24T03:18:19.097Z,10.65
2018-06-24T03:21:22.166Z,10.69
2018-06-24T03:24:25.377Z,10.74
2018-06-24T03:27:28.632Z,10.71
2018-06-24T03:30:31.748Z,10.74
2018-06-24T03:33:36.044Z,10.81
2018-06-24T03:36:39.290Z,10.94
2018-06-24T03:39:42.336Z,11.08
2018-06-24T03:42:45.508Z,11.15
2018-06-24T03:45:48.640Z,11.21
2018-06-24T03:48:53.004Z,11.19
2018-06-24T03:51:56.184Z,11.10
2018-06-24T03:54:59.295Z,10.96
2018-06-24T03:58:02.599Z,10.96
2018-06-24T04:01:05.890Z,11.00
2018-06-24T04:04:08.827Z,11.32
2018-06-24T04:07:11.827Z,11.65
2018-06-24T04:10:14.896Z,12.25
2018-06-24T04:13:17.965Z,13.10
2018-06-24T04:16:20.975Z,13.44
2018-06-24T04:19:24.139Z,13.03
2018-06-24T04:22:27.165Z,13.09
2018-06-24T04:25:30.205Z,13.68
2018-06-24T04:28:33.220Z,13.65
2018-06-24T04:31:36.247Z,15.01
2018-06-24T04:34:39.364Z,16.89
2018-06-24T04:37:42.412Z,17.85
2018-06-24T04:40:45.458Z,18.15
2018-06-24T04:43:48.508Z,18.53
2018-06-24T04:46:51.703Z,17.93
2018-06-24T04:49:54.924Z,16.68
2018-06-24T04:52:58.079Z,15.84
2018-06-24T04:56:01.338Z,14.86
2018-06-24T04:59:04.693Z,14.39
2018-06-24T05:02:08.913Z,13.92
2018-06-24T05:05:12.179Z,13.38
2018-06-24T05:08:15.409Z,13.14
2018-06-24T05:11:18.689Z,13.09
2018-06-24T05:14:21.921Z,13.25
2018-06-24T05:17:25.183Z,13.28
2018-06-24T05:20:28.508Z,13.39
2018-06-24T05:23:32.924Z,13.19
2018-06-24T05:26:36.105Z,12.85
2018-06-24T05:29:39.528Z,12.81
2018-06-24T05:32:43.504Z,13.03
2018-06-24T05:35:46.629Z,13.20
2018-06-24T05:38:49.694Z,13.29
2018-06-24T05:41:52.704Z,13.47
2018-06-24T05:44:56.790Z,13.80
2018-06-24T05:47:59.886Z,14.34
2018-06-24T05:51:04.151Z,14.79
2018-06-24T05:54:07.574Z,15.17
2018-06-24T05:57:11.556Z,15.80
2018-06-24T06:00:14.697Z,16.69
2018-06-24T06:03:18.081Z,17.75
2018-06-24T06:06:21.888Z,20.36
2018-06-24T06:09:25.348Z,22.81
2018-06-24T06:12:28.759Z,21.77
2018-06-24T06:15:32.337Z,19.96
2018-06-24T06:18:37.476Z,19.70
2018-06-24T06:21:40.885Z,20.43
2018-06-24T06:24:44.067Z,20.56
2018-06-24T06:27:47.247Z,23.41
2018-06-24T06:30:50.552Z,23.68
2018-06-24T06:33:54.948Z,22.90
2018-06-24T06:36:58.520Z,22.11
2018-06-24T06:40:01.766Z,24.03
2018-06-24T06:43:05.160Z,23.15
2018-06-24T06:46:10.887Z,21.39
2018-06-24T06:49:14.136Z,19.57
2018-06-24T06:52:17.395Z,19.34
2018-06-24T06:55:20.454Z,19.70
2018-06-24T06:58:24.489Z,18.37
2018-06-24T07:01:27.452Z,18.41
2018-06-24T07:04:30.487Z,18.94
2018-06-24T07:07:34.701Z,19.10
2018-06-24T07:10:38.740Z,20.63
2018-06-24T07:13:41.808Z,19.80
2018-06-24T07:16:46.114Z,18.66
2018-06-24T07:19:49.298Z,18.79
2018-06-24T07:22:52.488Z,18.97
2018-06-24T07:25:55.603Z,17.83
2018-06-24T07:29:00.005Z,17.88
2018-06-24T07:32:03.190Z,18.74
2018-06-24T07:35:06.367Z,18.07
2018-06-24T07:38:09.627Z,17.79
2018-06-24T07:41:12.780Z,18.69
2018-06-24T07:44:15.895Z,22.20
2018-06-24T07:47:19.146Z,24.06
2018-06-24T07:50:22.588Z,21.64
2018-06-24T07:53:26.123Z,20.07
2018-06-24T07:56:29.496Z,18.60
2018-06-24T07:59:32.501Z,18.85
2018-06-24T08:02:35.653Z,18.12
2018-06-24T08:05:38.975Z,17.96
2018-06-24T08:08:42.157Z,18.37
2018-06-24T08:11:45.375Z,19.52
2018-06-24T08:14:48.754Z,20.54
2018-06-24T08:17:51.902Z,20.88
2018-06-24T08:25:01.698Z,21.41
2018-06-24T08:28:04.909Z,22.32
2018-06-24T08:31:08.494Z,23.24
2018-06-24T08:34:11.571Z,22.48
2018-06-24T08:37:14.710Z,22.20
2018-06-24T08:40:18.019Z,21.94
2018-06-24T08:43:21.124Z,21.91
2018-06-24T08:46:24.345Z,20.10
2018-06-24T08:49:27.860Z,19.63
2018-06-24T08:52:31.184Z,18.88
2018-06-24T08:55:34.376Z,19.01
2018-06-24T08:58:37.567Z,19.43
2018-06-24T09:01:40.736Z,19.80
2018-06-24T09:04:44.021Z,19.70
2018-06-24T09:07:47.570Z,19.39
2018-06-24T09:10:51.894Z,19.44
2018-06-24T09:13:55.192Z,19.56
2018-06-24T09:16:58.551Z,19.63
2018-06-24T09:20:02.300Z,19.54
2018-06-24T09:23:05.657Z,20.48
2018-06-24T09:26:08.843Z,20.41
2018-06-24T09:29:12.324Z,20.55
2018-06-24T09:32:15.273Z,20.38
2018-06-24T09:35:18.415Z,20.98
2018-06-24T09:38:21.579Z,20.59
2018-06-24T09:41:24.953Z,20.75
2018-06-24T09:44:28.103Z,20.63
2018-06-24T09:47:31.446Z,22.00
2018-06-24T09:50:34.748Z,21.16
2018-06-24T09:53:38.139Z,20.93
2018-06-24T09:56:41.385Z,21.31
2018-06-24T09:59:44.801Z,21.78
2018-06-24T10:02:48.366Z,21.51
2018-06-24T10:05:52.548Z,20.41
2018-06-24T10:08:55.747Z,20.47
2018-06-24T10:11:59.033Z,20.12
2018-06-24T10:15:02.377Z,20.22
2018-06-24T10:18:05.935Z,20.59
2018-06-24T10:21:09.097Z,21.16
2018-06-24T10:24:12.778Z,21.00
2018-06-24T10:27:16.126Z,21.56
2018-06-24T10:30:19.417Z,21.68
2018-06-24T10:33:22.755Z,20.91
2018-06-24T10:36:26.308Z,20.06
2018-06-24T10:39:29.533Z,19.95
2018-06-24T10:42:32.614Z,20.76
2018-06-24T10:45:35.727Z,21.13
2018-06-24T10:48:38.798Z,21.94
2018-06-24T10:51:41.921Z,21.56
2018-06-24T10:54:45.444Z,22.15
2018-06-24T10:57:48.769Z,22.50
2018-06-24T11:00:52.076Z,21.55
2018-06-24T11:03:55.579Z,22.42
2018-06-24T11:06:59.507Z,21.29
2018-06-24T11:10:03.379Z,20.60
2018-06-24T11:13:06.725Z,21.32
2018-06-24T11:16:10.037Z,20.69
2018-06-24T11:19:13.389Z,20.93
2018-06-24T11:22:16.705Z,20.92
2018-06-24T11:25:20.016Z,21.51
2018-06-24T11:28:23.297Z,21.07
2018-06-24T11:31:26.431Z,21.38
2018-06-24T11:34:29.728Z,21.80
2018-06-24T11:37:32.872Z,21.40
2018-06-24T11:40:36.069Z,21.45
2018-06-24T11:43:39.181Z,21.21
2018-06-24T11:46:42.377Z,20.61
2018-06-24T11:49:45.780Z,21.24
2018-06-24T11:52:49.124Z,21.64
2018-06-24T11:55:52.502Z,21.88
2018-06-24T11:58:57.311Z,22.27
2018-06-24T12:02:00.298Z,22.35
2018-06-24T12:05:03.382Z,21.38
2018-06-24T12:08:06.732Z,21.36
2018-06-24T12:11:10.019Z,21.25
2018-06-24T12:14:13.447Z,21.48
2018-06-24T12:17:16.507Z,20.95
2018-06-24T12:20:19.644Z,21.24
2018-06-24T12:23:22.817Z,21.20
2018-06-24T12:26:26.027Z,21.06
2018-06-24T12:29:29.277Z,20.94
2018-06-24T12:32:32.581Z,21.11
2018-06-24T12:35:36.173Z,21.43
2018-06-24T12:38:39.360Z,22.35
2018-06-24T12:41:42.536Z,21.33
2018-06-24T12:44:45.586Z,21.12
2018-06-24T12:47:48.742Z,21.22
2018-06-24T12:50:51.920Z,21.70
2018-06-24T12:53:55.051Z,20.91
2018-06-24T12:56:58.122Z,20.85
2018-06-24T13:00:01.831Z,20.83
2018-06-24T13:03:04.507Z,21.19
2018-06-24T13:06:07.561Z,20.66
2018-06-24T13:09:10.903Z,21.06
2018-06-24T13:12:14.196Z,20.39
2018-06-24T13:15:17.579Z,20.36
2018-06-24T13:18:21.012Z,20.92
2018-06-24T13:21:24.100Z,21.51
2018-06-24T13:24:27.296Z,21.98
2018-06-24T13:27:30.486Z,22.33
2018-06-24T13:30:33.613Z,22.09
2018-06-24T13:33:36.760Z,22.42
2018-06-24T13:36:41.030Z,22.53
2018-06-24T13:39:44.045Z,21.88
2018-06-24T13:42:48.130Z,21.80
2018-06-24T13:45:51.262Z,21.87
2018-06-24T13:48:55.248Z,21.62
2018-06-24T13:51:58.539Z,21.37
2018-06-24T13:55:01.782Z,21.87
2018-06-24T13:58:05.544Z,22.10
2018-06-24T14:01:08.881Z,21.69
2018-06-24T14:04:12.231Z,21.90
2018-06-24T14:07:15.550Z,21.79
2018-06-24T14:10:18.753Z,21.39
2018-06-24T14:13:22.037Z,21.87
2018-06-24T14:16:25.022Z,22.67
2018-06-24T14:19:28.066Z,21.79
2018-06-24T14:22:31.171Z,22.28
2018-06-24T14:25:34.341Z,22.50
2018-06-24T14:28:37.431Z,22.26
2018-06-24T14:31:40.751Z,21.73
2018-06-24T14:34:43.997Z,21.61
2018-06-24T14:37:47.399Z,21.50
2018-06-24T14:40:50.864Z,20.98
2018-06-24T14:43:53.917Z,20.51
2018-06-24T14:46:57.041Z,20.64
2018-06-24T14:50:00.476Z,20.74
2018-06-24T14:53:03.781Z,20.31
2018-06-24T14:56:07.039Z,20.38
2018-06-24T14:59:10.228Z,20.00
2018-06-24T15:02:13.525Z,19.78
2018-06-24T15:05:16.817Z,19.69
2018-06-24T15:08:20.207Z,19.40
2018-06-24T15:11:23.629Z,19.69
2018-06-24T15:14:26.867Z,19.57
2018-06-24T15:17:30.110Z,19.45
2018-06-24T15:20:33.571Z,19.46
2018-06-24T15:23:36.883Z,19.49
2018-06-24T15:26:40.010Z,19.40
2018-06-24T15:29:43.432Z,19.49
2018-06-24T15:32:46.816Z,19.97
2018-06-24T15:35:50.597Z,19.99
2018-06-24T15:38:54.963Z,20.05
2018-06-24T15:41:58.510Z,19.91
2018-06-24T15:45:01.671Z,19.65
2018-06-24T15:48:05.228Z,19.49
2018-06-24T15:51:08.763Z,19.77
2018-06-24T15:54:12.097Z,19.65
2018-06-24T15:57:15.605Z,19.66
2018-06-24T16:00:20.345Z,19.78
2018-06-24T16:03:23.558Z,19.53
2018-06-24T16:06:28.867Z,19.50
2018-06-24T16:09:32.186Z,19.52
2018-06-24T16:12:35.626Z,19.62
2018-06-24T16:15:39.251Z,19.64
2018-06-24T16:18:43.337Z,19.71
2018-06-24T16:21:46.499Z,19.57
2018-06-24T16:24:49.630Z,19.49
2018-06-24T16:27:52.990Z,19.32
2018-06-24T16:30:57.644Z,19.12
2018-06-24T16:34:02.265Z,19.14
2018-06-24T16:37:05.434Z,19.01
2018-06-24T16:40:09.382Z,18.90
2018-06-24T16:43:12.630Z,18.93
2018-06-24T16:46:15.976Z,18.89
2018-06-24T16:49:19.263Z,18.83
2018-06-24T16:52:22.349Z,18.70
2018-06-24T16:55:25.559Z,18.64
2018-06-24T16:58:28.739Z,18.60
2018-06-24T17:01:31.856Z,18.74
2018-06-24T17:04:35.047Z,18.60
2018-06-24T17:07:38.245Z,18.66
2018-06-24T17:10:41.684Z,18.50
2018-06-24T17:13:45.689Z,18.43
2018-06-24T17:16:48.931Z,18.24
2018-06-24T17:19:55.710Z,18.26
2018-06-24T17:22:58.914Z,18.29
2018-06-24T17:26:02.017Z,18.10
2018-06-24T17:29:05.169Z,18.04
2018-06-24T17:32:08.571Z,17.97
2018-06-24T17:35:11.901Z,17.91
2018-06-24T17:38:15.335Z,17.86
2018-06-24T17:41:18.801Z,17.90
2018-06-24T17:44:22.163Z,17.86
2018-06-24T17:47:25.585Z,17.68
2018-06-24T17:50:28.979Z,17.62
2018-06-24T17:53:32.419Z,17.69
2018-06-24T17:56:35.603Z,17.55
2018-06-24T17:59:38.517Z,17.58
2018-06-24T18:02:41.610Z,17.57
2018-06-24T18:05:44.749Z,17.49
2018-06-24T18:08:47.816Z,17.46
2018-06-24T18:11:51.099Z,17.38
2018-06-24T18:14:59.758Z,17.32
2018-06-24T18:18:02.982Z,17.33
2018-06-24T18:21:06.149Z,17.23
2018-06-24T18:24:10.459Z,17.23
2018-06-24T18:27:15.815Z,17.19
2018-06-24T18:30:19.187Z,17.08
2018-06-24T18:33:23.169Z,17.01
2018-06-24T18:36:26.405Z,16.95
2018-06-24T18:39:29.598Z,16.88
2018-06-24T18:42:32.745Z,16.84
2018-06-24T18:45:35.879Z,16.79
2018-06-24T18:48:39.390Z,16.73
2018-06-24T18:51:42.742Z,16.68
2018-06-24T18:54:46.991Z,16.54
2018-06-24T18:57:50.388Z,16.52
2018-06-24T19:00:53.602Z,16.49
2018-06-24T19:03:57.873Z,16.44
2018-06-24T19:07:01.966Z,16.46
2018-06-24T19:10:11.842Z,16.36
2018-06-24T19:13:15.135Z,16.33
2018-06-24T19:16:18.366Z,16.20
2018-06-24T19:19:21.710Z,16.17
2018-06-24T19:22:25.058Z,16.11
2018-06-24T19:25:28.311Z,16.07
2018-06-24T19:28:31.691Z,16.04
2018-06-24T19:31:35.004Z,15.99
2018-06-24T19:34:38.334Z,16.03
2018-06-24T19:37:41.616Z,16.04
2018-06-24T19:40:45.104Z,15.95
2018-06-24T19:43:48.433Z,16.00
2018-06-24T19:46:52.871Z,15.94
2018-06-24T19:49:56.372Z,15.97
2018-06-24T19:52:59.579Z,15.97
2018-06-24T19:56:02.964Z,15.96
2018-06-24T19:59:07.310Z,15.89
2018-06-24T20:02:11.592Z,15.84
2018-06-24T20:05:15.703Z,15.89
2018-06-24T20:08:18.920Z,15.89
2018-06-24T20:11:22.198Z,15.91
2018-06-24T20:14:25.624Z,15.90
2018-06-24T20:17:28.948Z,15.89
2018-06-24T20:20:32.011Z,15.87
2018-06-24T20:23:35.394Z,15.84
2018-06-24T20:27:09.409Z,15.87
2018-06-24T20:30:12.719Z,15.84
2018-06-24T20:33:16.023Z,15.87
2018-06-24T20:36:19.675Z,15.86
2018-06-24T20:39:23.114Z,15.75
2018-06-24T20:42:26.468Z,15.65
2018-06-24T20:45:29.623Z,15.62
2018-06-24T20:48:32.741Z,15.62
2018-06-24T20:51:36.000Z,15.63
2018-06-24T20:54:39.119Z,15.61
2018-06-24T20:57:42.303Z,15.60
2018-06-24T21:00:45.573Z,15.60
2018-06-24T21:03:49.024Z,15.60
2018-06-24T21:06:52.247Z,15.59
2018-06-24T21:09:55.633Z,15.53
2018-06-24T21:12:59.098Z,15.48
2018-06-24T21:16:02.268Z,15.45
2018-06-24T21:19:05.549Z,15.55
2018-06-24T21:22:08.780Z,15.44
2018-06-24T21:25:12.014Z,15.44
2018-06-24T21:28:15.401Z,15.44
2018-06-24T21:31:18.758Z,15.34
2018-06-24T21:34:22.065Z,15.28
2018-06-24T21:37:25.441Z,15.34
2018-06-24T21:40:28.807Z,15.30
2018-06-24T21:43:32.211Z,15.37
2018-06-24T21:46:35.557Z,15.29
2018-06-24T21:49:38.691Z,15.21
2018-06-24T21:52:43.096Z,15.19
2018-06-24T21:55:46.497Z,15.13
2018-06-24T21:58:50.241Z,15.12
2018-06-24T22:01:53.613Z,15.17
2018-06-24T22:04:56.987Z,15.20
2018-06-24T22:08:01.571Z,15.20
2018-06-24T22:11:07.017Z,15.13
2018-06-24T22:14:12.014Z,15.13
2018-06-24T22:17:15.731Z,15.11
2018-06-24T22:20:20.083Z,15.08
2018-06-24T22:23:23.505Z,15.06
2018-06-24T22:26:27.244Z,15.06
2018-06-24T22:29:30.917Z,15.08
2018-06-24T22:32:34.760Z,15.05
2018-06-24T22:35:38.151Z,15.05
2018-06-24T22:38:41.573Z,15.05
2018-06-24T22:41:44.831Z,15.03
2018-06-24T22:44:48.499Z,14.99
2018-06-24T22:47:52.435Z,14.98
2018-06-24T22:50:56.619Z,15.02
2018-06-24T22:54:01.280Z,15.02
2018-06-24T22:57:05.215Z,14.96
2018-06-24T23:00:14.472Z,14.93
2018-06-24T23:03:17.794Z,14.91
2018-06-24T23:06:21.736Z,14.81
2018-06-24T23:09:26.068Z,14.75
2018-06-24T23:12:30.592Z,14.72
2018-06-24T23:15:33.774Z,14.72
2018-06-24T23:18:38.475Z,14.66
2018-06-24T23:21:42.782Z,14.68
2018-06-24T23:24:46.229Z,14.75
2018-06-24T23:27:49.499Z,14.80
2018-06-24T23:30:52.744Z,14.80
2018-06-24T23:33:56.408Z,14.81
2018-06-24T23:36:59.767Z,14.73
2018-06-24T23:40:04.138Z,14.73
2018-06-24T23:43:07.263Z,14.72
2018-06-24T23:46:10.587Z,14.70
2018-06-24T23:49:14.117Z,14.70
2018-06-24T23:52:17.454Z,14.71
2018-06-24T23:55:20.722Z,14.71
2018-06-24T23:58:23.953Z,14.65
